Time;durP1;ratioP1;P1;durP2;ratioP2;P2;SDS_P1;SDS_P2;PMS_P1;PMS_P2;Temp;Humidity;BMP_temperature;BMP_pressure;BME280_temperature;BME280_humidity;BME280_pressure;Samples;Min_cycle;Max_cycle;Signal;HPM_P1;HPM_P2
2022/03/27 00:00:28;;;;;;;9.45;5.38;;;11.30;99.90;;;;;;5013904;28;20040;-74
2022/03/27 00:02:54;;;;;;;5.85;5.15;;;11.30;99.90;;;;;;5014556;28;20026;-73
2022/03/27 00:05:19;;;;;;;6.53;5.15;;;11.40;99.90;;;;;;5013339;28;20027;-73
2022/03/27 00:07:45;;;;;;;5.50;4.50;;;11.40;99.90;;;;;;5014408;28;20053;-73
2022/03/27 00:10:10;;;;;;;7.93;4.82;;;11.30;99.90;;;;;;5013802;28;20031;-73
2022/03/27 00:12:36;;;;;;;6.88;5.30;;;11.40;99.90;;;;;;5014396;28;20030;-73
2022/03/27 00:15:04;;;;;;;6.25;5.18;;;11.40;99.90;;;;;;5014859;28;20031;-73
2022/03/27 00:17:32;;;;;;;6.13;4.43;;;11.30;99.90;;;;;;5014684;28;20036;-73
2022/03/27 00:19:59;;;;;;;6.73;4.40;;;11.30;99.90;;;;;;4975850;28;1123600;-73
2022/03/27 00:22:26;;;;;;;5.28;4.50;;;11.30;99.90;;;;;;5014728;28;20070;-73
2022/03/27 00:24:51;;;;;;;5.63;4.43;;;11.30;99.90;;;;;;5015457;28;20010;-74
2022/03/27 00:27:17;;;;;;;6.95;5.03;;;11.30;99.90;;;;;;5015345;28;20433;-74
2022/03/27 00:29:42;;;;;;;7.18;4.90;;;11.20;99.90;;;;;;5015437;28;20014;-74
2022/03/27 00:32:08;;;;;;;7.53;4.90;;;11.20;99.90;;;;;;5015954;28;20015;-74
2022/03/27 00:34:34;;;;;;;6.13;4.82;;;11.20;99.90;;;;;;5014874;28;20098;-73
2022/03/27 00:36:59;;;;;;;5.97;5.18;;;11.20;99.90;;;;;;4998705;28;20033;-74
2022/03/27 00:39:25;;;;;;;6.95;5.53;;;11.20;99.90;;;;;;5015768;28;20014;-74
2022/03/27 00:41:51;;;;;;;6.30;4.88;;;11.20;99.90;;;;;;4998890;28;20033;-74
2022/03/27 00:44:17;;;;;;;5.90;5.18;;;11.10;99.90;;;;;;5015598;28;20023;-73
2022/03/27 00:46:43;;;;;;;6.20;4.88;;;11.10;99.90;;;;;;4999020;28;20066;-74
2022/03/27 00:49:09;;;;;;;6.85;4.97;;;11.10;99.90;;;;;;5016012;28;20045;-74
2022/03/27 00:51:35;;;;;;;8.95;5.65;;;11.10;99.90;;;;;;4999269;28;20022;-73
2022/03/27 00:54:00;;;;;;;7.85;5.50;;;11.10;99.90;;;;;;5016100;28;20014;-74
2022/03/27 00:56:26;;;;;;;6.82;5.60;;;11.10;99.90;;;;;;5016013;28;20022;-73
2022/03/27 00:58:51;;;;;;;7.72;5.70;;;11.10;99.90;;;;;;5015597;28;20018;-73
2022/03/27 01:01:35;;;;;;;7.60;5.60;;;11.10;99.90;;;;;;5016114;28;20041;-73
2022/03/27 01:04:01;;;;;;;6.57;5.47;;;11.10;99.90;;;;;;5015937;28;20041;-73
2022/03/27 01:06:43;;;;;;;7.32;5.95;;;11.00;99.90;;;;;;5016087;28;20082;-73
2022/03/27 01:11:55;;;;;;;8.40;6.05;;;11.00;99.90;;;;;;5016086;28;20042;-72
2022/03/27 01:14:30;;;;;;;7.97;6.32;;;11.00;99.90;;;;;;5015590;28;20022;-73
2022/03/27 01:17:08;;;;;;;8.65;6.65;;;11.00;99.90;;;;;;5018547;28;20049;-74
2022/03/27 01:19:34;;;;;;;8.63;6.63;;;10.90;99.90;;;;;;5018859;28;20042;-74
2022/03/27 01:22:00;;;;;;;9.82;6.88;;;10.90;99.90;;;;;;5019373;28;20029;-74
2022/03/27 01:24:26;;;;;;;8.80;6.57;;;10.80;99.90;;;;;;5019373;28;20070;-74
2022/03/27 01:26:52;;;;;;;9.23;6.90;;;10.80;99.90;;;;;;5019379;28;20014;-75
2022/03/27 01:29:18;;;;;;;9.73;7.47;;;10.70;99.90;;;;;;5019175;28;20032;-74
2022/03/27 01:31:45;;;;;;;11.90;8.18;;;10.70;99.90;;;;;;5019296;28;20030;-75
2022/03/27 01:34:10;;;;;;;11.93;8.30;;;10.70;99.90;;;;;;5019328;28;20038;-74
2022/03/27 01:36:36;;;;;;;12.43;8.05;;;10.60;99.90;;;;;;5019118;28;20031;-74
2022/03/27 01:39:08;;;;;;;12.10;7.85;;;10.50;99.90;;;;;;5019086;28;20014;-74
2022/03/27 01:41:35;;;;;;;11.63;7.10;;;10.60;99.90;;;;;;5018686;28;20030;-74
2022/03/27 01:44:00;;;;;;;10.32;7.28;;;10.50;99.90;;;;;;5002233;28;20029;-74
2022/03/27 01:46:31;;;;;;;11.82;8.07;;;10.50;99.90;;;;;;5019018;28;20014;-74
2022/03/27 01:48:58;;;;;;;12.70;8.30;;;10.50;99.90;;;;;;5019163;28;20079;-74
2022/03/27 01:51:24;;;;;;;13.90;8.75;;;10.60;99.90;;;;;;5018759;28;20223;-74
2022/03/27 01:53:49;;;;;;;13.10;8.60;;;10.60;99.90;;;;;;5018903;28;20048;-73
2022/03/27 01:56:15;;;;;;;11.85;8.35;;;10.60;99.90;;;;;;5018790;28;20061;-74
2022/03/27 01:58:42;;;;;;;11.38;7.80;;;10.60;99.90;;;;;;5018570;28;20015;-73
2022/03/27 02:01:08;;;;;;;9.32;7.05;;;10.50;99.90;;;;;;5018765;28;20078;-76
2022/03/27 02:03:34;;;;;;;10.80;7.55;;;10.40;99.90;;;;;;5018830;28;20018;-73
2022/03/27 02:06:01;;;;;;;10.98;7.55;;;10.30;99.90;;;;;;5018554;28;20026;-73
2022/03/27 02:08:28;;;;;;;11.23;7.82;;;10.20;99.90;;;;;;5018672;28;20010;-73
2022/03/27 02:10:53;;;;;;;10.45;6.97;;;10.10;99.90;;;;;;5018403;28;20016;-73
2022/03/27 02:13:19;;;;;;;11.93;7.18;;;10.10;99.90;;;;;;5018556;28;20068;-74
2022/03/27 02:15:46;;;;;;;11.70;7.95;;;10.10;99.90;;;;;;5018036;28;20037;-74
2022/03/27 02:18:12;;;;;;;10.68;7.32;;;10.10;99.90;;;;;;5018416;28;20018;-73
2022/03/27 02:20:39;;;;;;;10.70;7.28;;;10.10;99.90;;;;;;5017366;28;20077;-74
2022/03/27 02:23:06;;;;;;;10.35;7.53;;;10.00;99.90;;;;;;5018421;28;20014;-73
2022/03/27 02:25:32;;;;;;;11.98;8.02;;;10.00;99.90;;;;;;5018258;28;20038;-73
2022/03/27 02:27:58;;;;;;;11.80;8.07;;;9.90;99.90;;;;;;5017242;28;20037;-73
2022/03/27 02:30:23;;;;;;;12.40;8.00;;;9.90;99.90;;;;;;5017912;28;20014;-73
2022/03/27 02:32:49;;;;;;;11.80;7.68;;;9.90;99.90;;;;;;5017962;28;20038;-74
2022/03/27 02:35:14;;;;;;;11.52;7.88;;;9.90;99.90;;;;;;5018087;28;20040;-74
2022/03/27 02:37:40;;;;;;;10.00;7.53;;;9.90;99.90;;;;;;5018239;28;20094;-74
2022/03/27 02:40:06;;;;;;;10.38;7.00;;;9.90;99.90;;;;;;5017978;28;20026;-74
2022/03/27 02:42:32;;;;;;;10.63;7.65;;;9.90;99.90;;;;;;5018076;28;20029;-74
2022/03/27 02:44:57;;;;;;;11.23;7.55;;;9.90;99.90;;;;;;5017728;28;20022;-74
2022/03/27 02:47:23;;;;;;;11.75;7.82;;;9.90;99.90;;;;;;5017555;28;20014;-74
2022/03/27 02:49:48;;;;;;;11.88;8.52;;;9.80;99.90;;;;;;5017256;28;20014;-74
2022/03/27 02:52:14;;;;;;;13.20;8.50;;;9.90;99.90;;;;;;5017518;28;20045;-74
2022/03/27 02:54:40;;;;;;;13.15;9.07;;;9.90;99.90;;;;;;5017644;28;20034;-74
2022/03/27 02:57:07;;;;;;;14.55;9.68;;;9.80;99.90;;;;;;5017285;28;20022;-74
2022/03/27 02:59:32;;;;;;;14.23;9.32;;;9.80;99.90;;;;;;5017659;28;20030;-73
2022/03/27 03:02:00;;;;;;;15.48;9.82;;;9.80;99.90;;;;;;5000633;28;20082;-74
2022/03/27 03:04:26;;;;;;;15.25;10.27;;;9.80;99.90;;;;;;5000988;28;20035;-75
2022/03/27 03:06:53;;;;;;;12.98;8.80;;;9.80;99.90;;;;;;5017180;28;20094;-74
2022/03/27 03:09:19;;;;;;;13.85;8.50;;;9.80;99.90;;;;;;5017324;28;20027;-74
2022/03/27 03:11:44;;;;;;;12.52;8.40;;;9.80;99.90;;;;;;4984336;28;20097;-74
2022/03/27 03:14:10;;;;;;;11.60;7.82;;;9.80;99.90;;;;;;5000158;28;20033;-74
2022/03/27 03:16:38;;;;;;;10.55;7.63;;;9.70;99.90;;;;;;5016534;28;20073;-74
2022/03/27 03:19:04;;;;;;;10.45;7.57;;;9.70;99.90;;;;;;5017136;28;20102;-74
2022/03/27 03:21:30;;;;;;;11.60;8.23;;;9.80;99.90;;;;;;5016721;28;20045;-74
2022/03/27 03:23:56;;;;;;;11.48;8.25;;;9.70;99.90;;;;;;5000037;28;20021;-74
2022/03/27 03:26:22;;;;;;;10.07;7.82;;;9.70;99.90;;;;;;5016860;28;20026;-74
2022/03/27 03:28:48;;;;;;;11.98;8.45;;;9.80;99.90;;;;;;5016848;28;20035;-74
2022/03/27 03:31:14;;;;;;;10.40;7.75;;;9.80;99.90;;;;;;5016827;28;20114;-74
2022/03/27 03:33:40;;;;;;;11.50;8.18;;;9.80;99.90;;;;;;5016783;28;20030;-74
2022/03/27 03:36:06;;;;;;;11.20;8.50;;;9.70;99.90;;;;;;5016906;28;20026;-74
2022/03/27 03:38:31;;;;;;;13.27;9.18;;;9.70;99.90;;;;;;5016658;28;20057;-74
2022/03/27 03:40:57;;;;;;;12.93;8.57;;;9.70;99.90;;;;;;5016658;28;20030;-74
2022/03/27 03:43:23;;;;;;;14.13;9.65;;;9.70;99.90;;;;;;5016401;28;20028;-74
2022/03/27 03:45:48;;;;;;;13.98;9.88;;;9.70;99.90;;;;;;5016733;28;20597;-74
2022/03/27 03:48:14;;;;;;;12.93;8.80;;;9.70;99.90;;;;;;5016691;28;20023;-74
2022/03/27 03:50:39;;;;;;;13.88;8.95;;;9.70;99.90;;;;;;5016652;28;20028;-74
2022/03/27 03:53:05;;;;;;;12.70;9.27;;;9.70;99.90;;;;;;5016571;28;20042;-74
2022/03/27 03:55:31;;;;;;;14.18;10.05;;;9.70;99.90;;;;;;5016662;28;20038;-74
2022/03/27 03:57:57;;;;;;;14.40;10.18;;;9.70;99.90;;;;;;5016142;28;20022;-74
2022/03/27 04:00:25;;;;;;;16.75;11.13;;;9.80;99.90;;;;;;5016945;28;20084;-74
2022/03/27 04:02:51;;;;;;;18.30;11.55;;;9.80;99.90;;;;;;4999205;28;20023;-74
2022/03/27 04:05:17;;;;;;;15.73;10.93;;;9.70;99.90;;;;;;5016133;28;20023;-73
2022/03/27 04:07:43;;;;;;;15.73;10.75;;;9.70;99.90;;;;;;5015829;28;20130;-73
2022/03/27 04:10:09;;;;;;;16.17;10.88;;;9.70;99.90;;;;;;5015969;28;20018;-73
2022/03/27 04:12:35;;;;;;;18.38;10.65;;;9.70;99.90;;;;;;5015743;28;20030;-73
2022/03/27 04:15:00;;;;;;;18.10;11.20;;;9.70;99.90;;;;;;5015405;28;20045;-74
2022/03/27 04:17:26;;;;;;;16.52;10.82;;;9.70;99.90;;;;;;5015505;28;20031;-73
2022/03/27 04:19:52;;;;;;;15.70;11.05;;;9.60;99.90;;;;;;5015584;28;20042;-72
2022/03/27 04:22:17;;;;;;;18.13;11.32;;;9.60;99.90;;;;;;5016197;28;20026;-73
2022/03/27 04:24:44;;;;;;;18.50;12.23;;;9.50;99.90;;;;;;5016310;28;20031;-73
2022/03/27 04:27:10;;;;;;;17.05;11.02;;;9.50;99.90;;;;;;4999003;28;20027;-72
2022/03/27 04:29:35;;;;;;;19.48;12.48;;;9.50;99.90;;;;;;5016097;28;20018;-75
2022/03/27 04:32:01;;;;;;;18.10;11.63;;;9.50;99.90;;;;;;5015633;28;20018;-73
2022/03/27 04:34:26;;;;;;;16.00;11.00;;;9.50;99.90;;;;;;4998967;28;20018;-74
2022/03/27 04:36:53;;;;;;;19.15;11.63;;;9.50;99.90;;;;;;5015072;28;20046;-74
2022/03/27 04:39:19;;;;;;;16.05;10.52;;;9.50;99.90;;;;;;5015180;28;20109;-74
2022/03/27 04:41:46;;;;;;;18.60;11.70;;;9.40;99.90;;;;;;5014400;28;20030;-73
2022/03/27 04:44:12;;;;;;;17.70;11.57;;;9.50;99.90;;;;;;5014297;28;20026;-73
2022/03/27 04:46:38;;;;;;;19.00;11.00;;;9.40;99.90;;;;;;5014229;28;20034;-74
2022/03/27 04:49:03;;;;;;;17.42;10.77;;;9.40;99.90;;;;;;5014613;28;20050;-74
2022/03/27 04:51:30;;;;;;;16.55;11.07;;;9.40;99.90;;;;;;5016837;28;20026;-74
2022/03/27 04:53:56;;;;;;;18.00;11.23;;;9.40;99.90;;;;;;5019010;28;20026;-73
2022/03/27 04:56:21;;;;;;;16.23;10.60;;;9.40;99.90;;;;;;5018563;28;20006;-75
2022/03/27 04:58:47;;;;;;;14.35;9.73;;;9.50;99.90;;;;;;5001733;28;20041;-74
2022/03/27 05:01:13;;;;;;;13.82;9.43;;;9.40;99.90;;;;;;5019068;28;20026;-74
2022/03/27 05:03:39;;;;;;;16.13;9.82;;;9.40;99.90;;;;;;5018867;28;20053;-74
2022/03/27 05:06:04;;;;;;;14.65;9.20;;;9.30;99.90;;;;;;5018703;28;20057;-74
2022/03/27 05:08:30;;;;;;;15.00;10.02;;;9.30;99.90;;;;;;5018812;28;20026;-74
2022/03/27 05:10:57;;;;;;;13.60;8.85;;;9.30;99.90;;;;;;5018530;28;20010;-74
2022/03/27 05:13:22;;;;;;;14.20;9.50;;;9.30;99.90;;;;;;5018455;28;20023;-74
2022/03/27 05:15:48;;;;;;;14.27;9.45;;;9.30;99.90;;;;;;5018407;28;20108;-74
2022/03/27 05:18:14;;;;;;;15.48;10.13;;;9.30;99.90;;;;;;5018197;28;20058;-74
2022/03/27 05:20:41;;;;;;;16.48;10.65;;;9.30;99.90;;;;;;5018790;28;20074;-74
2022/03/27 05:23:07;;;;;;;15.73;9.70;;;9.30;99.90;;;;;;5018884;28;20026;-74
2022/03/27 05:25:40;;;;;;;14.50;9.35;;;9.30;99.90;;;;;;5018850;28;20025;-74
2022/03/27 05:28:07;;;;;;;14.55;9.80;;;9.30;99.90;;;;;;5001837;28;20121;-74
2022/03/27 05:30:32;;;;;;;14.27;9.52;;;9.30;99.90;;;;;;5018929;28;20010;-74
2022/03/27 05:32:58;;;;;;;13.82;9.63;;;9.30;99.90;;;;;;5018820;28;20078;-74
2022/03/27 05:35:24;;;;;;;13.93;9.27;;;9.30;99.90;;;;;;5018348;28;20034;-74
2022/03/27 05:37:51;;;;;;;14.90;9.18;;;9.30;99.90;;;;;;5018414;28;20054;-74
2022/03/27 05:40:18;;;;;;;14.35;9.02;;;9.30;99.90;;;;;;5018403;28;20018;-74
2022/03/27 05:42:45;;;;;;;13.05;8.68;;;9.30;99.90;;;;;;5018489;28;20046;-74
2022/03/27 05:45:11;;;;;;;12.25;8.25;;;9.30;99.90;;;;;;5018656;28;20086;-74
2022/03/27 05:47:43;;;;;;;12.15;8.02;;;9.30;99.90;;;;;;5018081;28;20037;-74
2022/03/27 05:50:10;;;;;;;13.00;8.38;;;9.30;99.90;;;;;;5018349;28;20018;-74
2022/03/27 05:52:36;;;;;;;11.68;8.77;;;9.30;99.90;;;;;;5018241;28;20034;-74
2022/03/27 05:55:03;;;;;;;12.13;8.63;;;9.20;99.90;;;;;;5017298;28;20078;-74
2022/03/27 05:57:29;;;;;;;12.57;8.55;;;9.20;99.90;;;;;;5017908;28;20022;-75
2022/03/27 05:59:55;;;;;;;14.02;9.80;;;9.20;99.90;;;;;;5018088;28;20074;-74
2022/03/27 06:02:20;;;;;;;12.80;8.55;;;9.20;99.90;;;;;;5017231;28;20019;-74
2022/03/27 06:04:46;;;;;;;13.23;9.23;;;9.10;99.90;;;;;;5001086;28;20014;-74
2022/03/27 06:07:11;;;;;;;13.65;9.00;;;9.10;99.90;;;;;;5018159;28;20022;-74
2022/03/27 06:09:37;;;;;;;12.65;8.75;;;9.10;99.90;;;;;;5017835;28;20019;-74
2022/03/27 06:12:04;;;;;;;13.65;9.00;;;9.10;99.90;;;;;;5017786;28;20110;-74
2022/03/27 06:14:30;;;;;;;12.48;9.05;;;9.10;99.90;;;;;;5017880;28;20033;-74
2022/03/27 06:16:56;;;;;;;12.00;8.57;;;9.10;99.90;;;;;;5018291;28;20037;-74
2022/03/27 06:19:22;;;;;;;12.05;8.95;;;9.10;99.90;;;;;;5017786;28;20042;-75
2022/03/27 06:21:48;;;;;;;11.85;8.60;;;9.00;99.90;;;;;;5017474;28;20069;-74
2022/03/27 06:24:13;;;;;;;11.80;8.70;;;8.90;99.90;;;;;;5017819;28;20023;-75
2022/03/27 06:26:40;;;;;;;11.25;8.15;;;9.00;99.90;;;;;;5017737;28;20030;-74
2022/03/27 06:29:09;;;;;;;11.45;8.18;;;9.00;99.90;;;;;;5018070;28;20049;-74
2022/03/27 06:31:38;;;;;;;10.30;7.95;;;9.00;99.90;;;;;;5016924;28;20030;-74
2022/03/27 06:34:05;;;;;;;10.48;7.85;;;9.00;99.90;;;;;;5016959;28;20053;-74
2022/03/27 06:36:31;;;;;;;10.25;7.93;;;9.00;99.90;;;;;;5017124;28;20037;-74
2022/03/27 06:38:56;;;;;;;9.15;7.35;;;9.00;99.90;;;;;;5017519;28;20022;-74
2022/03/27 06:41:22;;;;;;;10.65;7.78;;;9.00;99.90;;;;;;5017204;28;20024;-74
2022/03/27 06:43:47;;;;;;;11.80;8.43;;;9.00;99.90;;;;;;5017105;28;20026;-75
2022/03/27 06:46:16;;;;;;;12.35;8.30;;;9.00;99.90;;;;;;5017017;28;20068;-74
2022/03/27 06:48:46;;;;;;;12.10;8.77;;;9.00;99.90;;;;;;5017303;28;20022;-74
2022/03/27 06:51:11;;;;;;;13.10;9.60;;;9.00;99.90;;;;;;4984196;28;20018;-75
2022/03/27 06:53:37;;;;;;;14.23;9.85;;;9.00;99.90;;;;;;5013188;28;20066;-74
2022/03/27 06:56:03;;;;;;;16.20;10.27;;;9.00;99.90;;;;;;5015730;28;20029;-74
2022/03/27 06:58:29;;;;;;;15.60;10.35;;;9.00;99.90;;;;;;5016139;28;20030;-74
2022/03/27 07:03:39;;;;;;;18.08;10.52;;;8.90;99.90;;;;;;5013492;28;20046;-74
2022/03/27 07:06:04;;;;;;;14.52;9.98;;;9.00;99.90;;;;;;5013311;28;20081;-75
2022/03/27 07:08:30;;;;;;;14.50;9.80;;;8.90;99.90;;;;;;5011649;28;20022;-74
2022/03/27 07:10:56;;;;;;;15.35;10.48;;;9.00;99.90;;;;;;5012592;28;20014;-75
2022/03/27 07:13:21;;;;;;;17.30;11.40;;;9.00;99.90;;;;;;4996361;28;20015;-75
2022/03/27 07:15:49;;;;;;;15.65;10.38;;;9.10;99.90;;;;;;5014617;28;20030;-74
2022/03/27 07:18:18;;;;;;;17.90;11.23;;;9.00;99.90;;;;;;4996197;28;20011;-74
2022/03/27 07:20:46;;;;;;;16.45;10.85;;;9.00;99.90;;;;;;5014550;28;20058;-74
2022/03/27 07:23:13;;;;;;;14.85;10.07;;;9.00;99.90;;;;;;5014093;28;20018;-74
2022/03/27 07:25:41;;;;;;;14.45;10.20;;;9.00;99.90;;;;;;5011807;28;20050;-75
2022/03/27 07:28:09;;;;;;;15.55;10.27;;;9.00;99.90;;;;;;5014336;28;20022;-74
2022/03/27 07:30:35;;;;;;;14.13;9.55;;;9.00;99.90;;;;;;5013851;28;20049;-75
2022/03/27 07:33:01;;;;;;;14.68;10.05;;;9.00;99.90;;;;;;5011308;28;20034;-73
2022/03/27 07:35:30;;;;;;;15.80;10.07;;;9.00;99.90;;;;;;5010977;28;20022;-73
2022/03/27 07:37:56;;;;;;;17.55;10.93;;;9.00;99.90;;;;;;5013737;28;20003;-74
2022/03/27 07:40:21;;;;;;;17.92;11.35;;;9.00;99.90;;;;;;5014277;28;20029;-74
2022/03/27 07:42:50;;;;;;;17.80;11.10;;;9.00;99.90;;;;;;5014012;28;20014;-74
2022/03/27 07:45:20;;;;;;;16.08;10.18;;;9.10;99.90;;;;;;5012052;28;20049;-74
2022/03/27 07:47:47;;;;;;;17.55;11.10;;;9.00;99.90;;;;;;5011080;28;20018;-74
2022/03/27 07:50:13;;;;;;;15.57;10.30;;;9.10;99.90;;;;;;5021117;28;20052;-74
2022/03/27 07:52:39;;;;;;;14.70;9.45;;;9.10;99.90;;;;;;5009701;28;20078;-74
2022/03/27 07:55:07;;;;;;;14.85;10.32;;;9.20;99.90;;;;;;5014298;28;20041;-73
2022/03/27 07:57:32;;;;;;;15.23;10.27;;;9.20;99.90;;;;;;4999013;28;20057;-74
2022/03/27 07:59:58;;;;;;;13.77;9.50;;;9.30;99.90;;;;;;5008969;28;20019;-74
2022/03/27 08:02:23;;;;;;;14.73;9.15;;;9.40;99.90;;;;;;5005760;28;20041;-73
2022/03/27 08:04:49;;;;;;;12.38;7.93;;;9.50;99.90;;;;;;4984971;28;20030;-74
2022/03/27 08:07:15;;;;;;;12.25;8.25;;;9.60;99.90;;;;;;5012677;28;20049;-74
2022/03/27 08:09:41;;;;;;;11.75;8.02;;;9.70;99.90;;;;;;4998012;28;20014;-74
2022/03/27 08:12:08;;;;;;;12.48;7.78;;;9.70;99.90;;;;;;5011251;28;20110;-74
2022/03/27 08:14:38;;;;;;;11.50;7.55;;;9.80;99.90;;;;;;5012386;28;20019;-75
2022/03/27 08:17:04;;;;;;;9.13;6.00;;;10.00;99.90;;;;;;5009691;28;20026;-74
2022/03/27 08:19:30;;;;;;;9.02;5.90;;;10.10;99.90;;;;;;5000038;28;20054;-73
2022/03/27 08:21:56;;;;;;;9.45;5.72;;;10.20;99.90;;;;;;4996798;28;20034;-73
2022/03/27 08:24:22;;;;;;;10.68;5.55;;;10.30;99.90;;;;;;5009158;28;20045;-72
2022/03/27 08:26:59;;;;;;;8.60;5.28;;;10.40;99.90;;;;;;5017703;28;20022;-73
2022/03/27 08:29:26;;;;;;;9.00;5.00;;;10.60;99.90;;;;;;5017823;28;20042;-74
2022/03/27 08:31:53;;;;;;;8.38;4.60;;;10.70;99.90;;;;;;5018050;28;20018;-73
2022/03/27 08:34:20;;;;;;;9.18;5.03;;;10.90;99.90;;;;;;5017970;28;20070;-72
2022/03/27 08:36:46;;;;;;;10.20;5.45;;;11.00;99.90;;;;;;5015712;28;20039;-73
2022/03/27 08:39:12;;;;;;;9.90;5.75;;;11.10;99.90;;;;;;5016926;28;20089;-73
2022/03/27 08:41:45;;;;;;;9.05;5.10;;;11.20;99.90;;;;;;4999189;28;20513;-73
2022/03/27 08:44:13;;;;;;;9.10;6.05;;;11.30;99.90;;;;;;5014820;28;20146;-73
2022/03/27 08:46:40;;;;;;;9.20;5.28;;;11.50;99.90;;;;;;5013802;28;20033;-71
2022/03/27 08:49:30;;;;;;;8.00;5.38;;;11.60;99.90;;;;;;5012296;28;20030;-71
2022/03/27 08:51:58;;;;;;;8.80;5.47;;;11.80;99.90;;;;;;5010372;28;20019;-73
2022/03/27 08:54:26;;;;;;;10.48;6.60;;;11.90;99.90;;;;;;5016775;28;20026;-72
2022/03/27 08:57:26;;;;;;;8.32;5.60;;;12.00;99.90;;;;;;5019387;28;20065;-72
2022/03/27 08:59:53;;;;;;;8.82;5.93;;;12.00;99.90;;;;;;5017965;28;20041;-74
2022/03/27 09:02:23;;;;;;;10.68;5.30;;;12.20;99.90;;;;;;5014255;28;20011;-72
2022/03/27 09:04:54;;;;;;;9.73;5.82;;;12.30;99.90;;;;;;5012794;28;20026;-73
2022/03/27 09:07:25;;;;;;;9.27;5.50;;;12.50;99.90;;;;;;5013768;28;20026;-74
2022/03/27 09:09:52;;;;;;;8.75;5.72;;;12.60;99.90;;;;;;5019171;28;20014;-74
2022/03/27 09:12:19;;;;;;;9.10;6.35;;;12.60;99.90;;;;;;5018956;28;20018;-73
2022/03/27 09:14:46;;;;;;;8.55;6.15;;;12.70;99.90;;;;;;5018513;28;20049;-74
2022/03/27 09:17:14;;;;;;;8.77;5.57;;;12.80;99.90;;;;;;5019670;28;20038;-75
2022/03/27 09:19:43;;;;;;;7.47;5.50;;;12.90;99.90;;;;;;5019458;28;20017;-73
2022/03/27 09:22:19;;;;;;;7.47;5.47;;;13.00;99.90;;;;;;5019423;28;20038;-74
2022/03/27 09:24:47;;;;;;;9.68;5.95;;;13.00;99.50;;;;;;5018867;28;20015;-75
2022/03/27 09:27:14;;;;;;;8.68;5.55;;;13.10;99.50;;;;;;5018824;28;20027;-74
2022/03/27 09:30:10;;;;;;;7.47;4.90;;;13.30;98.70;;;;;;5019212;28;20070;-74
2022/03/27 09:32:42;;;;;;;7.30;5.13;;;13.40;98.20;;;;;;5019350;28;20086;-74
2022/03/27 09:35:10;;;;;;;6.80;4.97;;;13.50;97.20;;;;;;5019118;28;20034;-74
2022/03/27 09:37:39;;;;;;;8.40;5.43;;;13.60;96.40;;;;;;5019001;28;20023;-74
2022/03/27 09:40:06;;;;;;;7.63;4.95;;;13.70;96.00;;;;;;5019404;28;20049;-76
2022/03/27 09:42:32;;;;;;;8.98;5.15;;;13.80;95.50;;;;;;5019295;28;20022;-74
2022/03/27 09:45:18;;;;;;;9.23;5.25;;;13.90;94.70;;;;;;5019184;28;20029;-74
2022/03/27 09:47:46;;;;;;;6.78;4.65;;;13.90;93.60;;;;;;5018704;28;20026;-75
2022/03/27 09:50:37;;;;;;;7.10;4.57;;;14.00;93.90;;;;;;5018972;28;20026;-75
2022/03/27 09:53:21;;;;;;;6.57;4.72;;;14.10;92.70;;;;;;5018621;28;20034;-77
2022/03/27 09:56:07;;;;;;;9.43;4.90;;;14.20;93.00;;;;;;5018848;28;20031;-75
2022/03/27 09:58:37;;;;;;;5.45;4.47;;;14.30;92.30;;;;;;5014705;28;20097;-75
2022/03/27 10:01:08;;;;;;;7.97;4.93;;;14.50;92.40;;;;;;5018015;28;20574;-74
2022/03/27 10:03:35;;;;;;;7.70;5.32;;;14.60;91.70;;;;;;5017405;28;20026;-74
2022/03/27 10:06:02;;;;;;;6.35;4.53;;;14.70;90.60;;;;;;5018318;28;20069;-74
2022/03/27 10:08:28;;;;;;;7.70;5.05;;;14.80;90.30;;;;;;5018620;28;20026;-75
2022/03/27 10:10:55;;;;;;;7.43;4.60;;;14.90;89.70;;;;;;5018360;28;20030;-74
2022/03/27 10:13:23;;;;;;;8.60;5.20;;;14.90;88.30;;;;;;5017484;28;20027;-74
2022/03/27 10:15:54;;;;;;;6.57;4.68;;;15.00;87.00;;;;;;5017323;28;20049;-75
2022/03/27 10:18:21;;;;;;;7.38;4.88;;;15.00;86.70;;;;;;5018250;28;20094;-74
2022/03/27 10:20:54;;;;;;;6.75;4.55;;;15.10;85.20;;;;;;5000941;28;20050;-74
2022/03/27 10:23:23;;;;;;;8.82;4.50;;;15.10;84.70;;;;;;5017943;28;20045;-74
2022/03/27 10:25:55;;;;;;;5.78;4.18;;;15.10;83.10;;;;;;5017420;28;20029;-73
2022/03/27 10:28:21;;;;;;;9.55;4.80;;;15.10;81.60;;;;;;5018285;28;20026;-73
2022/03/27 10:30:51;;;;;;;10.18;4.43;;;15.10;82.50;;;;;;5018034;28;20106;-74
2022/03/27 10:33:18;;;;;;;7.22;4.10;;;15.20;81.20;;;;;;5018310;28;20026;-73
2022/03/27 10:35:58;;;;;;;8.20;4.50;;;15.30;80.50;;;;;;5017980;28;20046;-74
2022/03/27 10:38:42;;;;;;;6.20;4.80;;;15.40;80.30;;;;;;5018178;28;20030;-74
2022/03/27 10:41:20;;;;;;;7.47;4.43;;;15.50;79.20;;;;;;5018172;28;20056;-73
2022/03/27 10:44:10;;;;;;;6.68;3.92;;;15.60;78.90;;;;;;5018206;28;20078;-74
2022/03/27 10:46:37;;;;;;;7.13;4.57;;;15.60;77.20;;;;;;5017953;28;20034;-74
2022/03/27 10:49:17;;;;;;;6.85;4.10;;;15.70;76.40;;;;;;5017240;28;20025;-73
2022/03/27 10:51:44;;;;;;;6.97;3.70;;;15.70;75.70;;;;;;5018028;28;20026;-74
2022/03/27 10:54:20;;;;;;;5.63;3.50;;;15.80;75.20;;;;;;5017250;28;20058;-74
2022/03/27 10:56:51;;;;;;;9.10;4.55;;;15.90;73.10;;;;;;5017464;28;20078;-74
2022/03/27 10:59:22;;;;;;;6.68;3.70;;;15.90;69.70;;;;;;5017473;28;20019;-74
2022/03/27 11:01:49;;;;;;;6.30;3.63;;;15.90;70.20;;;;;;5017884;28;20045;-74
2022/03/27 11:04:17;;;;;;;5.07;2.90;;;15.90;70.10;;;;;;5005586;28;20053;-72
2022/03/27 11:06:47;;;;;;;7.60;3.15;;;16.00;68.80;;;;;;4994152;28;20177;-75
2022/03/27 11:09:35;;;;;;;7.00;3.65;;;16.10;65.20;;;;;;4993207;28;20089;-76
2022/03/27 11:12:24;;;;;;;8.77;3.35;;;16.20;63.10;;;;;;4996184;28;20490;-75
2022/03/27 11:14:53;;;;;;;7.70;3.75;;;16.20;63.00;;;;;;4979124;28;20062;-74
2022/03/27 11:17:43;;;;;;;5.60;3.10;;;16.20;61.90;;;;;;5000583;28;20445;-73
2022/03/27 11:20:16;;;;;;;7.85;3.72;;;16.30;60.20;;;;;;5003207;28;20056;-74
2022/03/27 11:22:53;;;;;;;9.50;3.33;;;16.40;60.70;;;;;;4990564;28;20037;-73
2022/03/27 11:25:26;;;;;;;5.78;2.95;;;16.60;60.60;;;;;;4995000;28;20047;-73
2022/03/27 11:28:12;;;;;;;7.05;2.88;;;16.70;59.10;;;;;;4987842;28;20402;-73
2022/03/27 11:30:45;;;;;;;6.47;3.05;;;16.90;57.50;;;;;;4997672;28;20042;-74
2022/03/27 11:33:17;;;;;;;5.80;3.13;;;17.00;56.20;;;;;;4995841;28;20023;-73
2022/03/27 11:36:09;;;;;;;5.75;3.33;;;17.00;55.30;;;;;;4992313;28;20518;-74
2022/03/27 11:38:54;;;;;;;8.77;3.55;;;17.10;55.20;;;;;;4976515;28;20046;-73
2022/03/27 11:41:34;;;;;;;6.63;3.70;;;17.10;55.50;;;;;;5003254;28;20034;-75
2022/03/27 11:45:06;;;;;;;5.95;3.70;;;17.10;56.10;;;;;;5002384;28;20023;-74
2022/03/27 11:47:11;;;;;;;9.25;3.67;;;17.30;56.10;;;;;;5001591;28;20038;-74
2022/03/27 11:49:41;;;;;;;6.60;3.90;;;17.40;55.30;;;;;;5002949;28;20018;-75
2022/03/27 11:52:13;;;;;;;7.38;4.05;;;17.40;54.90;;;;;;4986790;28;20030;-73
2022/03/27 11:54:40;;;;;;;7.30;4.13;;;17.50;55.20;;;;;;4980111;28;20026;-74
2022/03/27 11:57:06;;;;;;;7.80;3.92;;;17.50;55.40;;;;;;4996530;28;20054;-73
2022/03/27 11:59:46;;;;;;;8.00;3.65;;;17.60;55.20;;;;;;4978192;28;20053;-72
2022/03/27 12:02:11;;;;;;;9.48;4.00;;;17.70;53.60;;;;;;4998040;28;20057;-72
2022/03/27 12:04:56;;;;;;;6.28;4.13;;;17.70;53.70;;;;;;4999105;28;20406;-72
2022/03/27 12:07:24;;;;;;;4.95;2.72;;;17.70;53.50;;;;;;4997878;28;20034;-72
2022/03/27 12:09:57;;;;;;;5.38;2.60;;;17.70;52.30;;;;;;4975966;28;20129;-76
2022/03/27 12:12:23;;;;;;;5.10;2.22;;;17.70;51.20;;;;;;4993391;28;20034;-74
2022/03/27 12:14:57;;;;;;;5.25;2.47;;;17.70;50.40;;;;;;4993012;28;20106;-72
2022/03/27 12:17:31;;;;;;;5.82;2.60;;;17.80;50.00;;;;;;4994094;28;20041;-75
2022/03/27 12:20:01;;;;;;;4.78;2.33;;;17.80;49.90;;;;;;4989871;28;20062;-73
2022/03/27 12:22:35;;;;;;;7.45;2.65;;;17.70;49.70;;;;;;4985585;28;20028;-72
2022/03/27 12:25:20;;;;;;;5.40;2.33;;;17.90;49.80;;;;;;4988427;28;20019;-73
2022/03/27 12:30:47;;;;;;;7.22;2.47;;;18.20;49.00;;;;;;5000440;28;20097;-73
2022/03/27 12:33:14;;;;;;;6.45;2.17;;;18.30;48.80;;;;;;4996972;28;20118;-73
2022/03/27 12:35:39;;;;;;;4.68;1.80;;;18.40;48.50;;;;;;4987401;28;20102;-73
2022/03/27 12:38:05;;;;;;;4.20;1.80;;;18.40;46.80;;;;;;4991584;28;20067;-73
2022/03/27 12:40:44;;;;;;;4.63;1.77;;;18.40;46.10;;;;;;4991016;28;20074;-76
2022/03/27 12:43:12;;;;;;;5.88;1.80;;;18.40;46.30;;;;;;4984892;28;20031;-75
2022/03/27 12:45:42;;;;;;;5.65;1.73;;;18.40;44.90;;;;;;4977725;28;20144;-75
2022/03/27 12:48:28;;;;;;;4.20;1.45;;;18.40;44.10;;;;;;4983252;28;20019;-75
2022/03/27 12:50:55;;;;;;;4.20;1.42;;;18.30;43.60;;;;;;4974967;28;20034;-72
2022/03/27 12:53:21;;;;;;;5.25;1.42;;;18.30;43.60;;;;;;4987619;28;20035;-74
2022/03/27 12:55:56;;;;;;;3.45;1.40;;;18.40;42.90;;;;;;4983200;28;20486;-73
2022/03/27 12:58:37;;;;;;;7.15;1.58;;;18.50;41.80;;;;;;4993232;28;20386;-73